Flight Track Log - Related Links

Times and Time Zones

All times are in EST time to prevent confusion due to time zone crossing. See the N6271R flight status page for this flight to view local times or setup timezone preferences in your user account.

Time Position Orientation Groundspeed Altitude Reporting Facility
EST Latitude Longitude Course Direction KTS MPH feet Rate Location/Type
Thu 10:28:49 PM 37.2283 -120.1597 142° Southeast  Level FlightAware Approximate
Thu 10:29:49 PM 37.2655 -120.1917 142° Southeast  Level FlightAware Approximate
Thu 10:30:49 PM 37.3027 -120.2237 142° Southeast  Level FlightAware Approximate
Thu 10:31:49 PM 37.3381 -120.2582 142° Southeast  Level FlightAware Approximate
Thu 10:33:13 PM 36.9500 -119.8833 321° Northwest 164 189 4,000  Level Northern Cal TRACON
Thu 10:34:13 PM 36.9833 -119.9167 332° Northwest 166 191 4,000  Level Northern Cal TRACON
Thu 10:35:14 PM 37.0333 -119.9500 321° Northwest 164 189 4,000 50 Level Northern Cal TRACON
Thu 10:36:14 PM 37.0667 -119.9833 321° Northwest 163 188 4,100 50 Climbing Northern Cal TRACON
Thu 10:37:14 PM 37.1000 -120.0167 321° Northwest 163 188 4,100  Level Northern Cal TRACON
Thu 10:38:14 PM 37.1333 -120.0500 310° West 166 191 4,100  Level Northern Cal TRACON
Thu 10:39:14 PM 37.1667 -120.1000 321° Northwest 168 193 4,100  Level Northern Cal TRACON
Thu 10:40:14 PM 37.2000 -120.1333 332° Northwest 168 193 4,100  Level Northern Cal TRACON
Thu 10:41:14 PM 37.2500 -120.1667 321° Northwest 170 196 4,100  Level Northern Cal TRACON
Thu 10:42:15 PM 37.2833 -120.2000 322° Northwest 167 192 4,100  Level Northern Cal TRACON
Thu 10:43:15 PM 37.3167 -120.2333 322° Northwest 168 193 4,100  Level Northern Cal TRACON
Thu 10:44:15 PM 37.3500 -120.2667 310° West 167 192 4,100  Level Northern Cal TRACON
Thu 10:45:15 PM 37.3833 -120.3167 332° Northwest 166 191 4,100  Level Northern Cal TRACON
Thu 10:46:15 PM 37.4333 -120.3500 322° Northwest 166 191 4,100  Level Northern Cal TRACON
Thu 10:47:09 PM 37.4667 -120.3833 322° Northwest 168 193 4,100  Level Northern Cal TRACON
Thu 10:48:09 PM 37.5000 -120.4167 322° Northwest 166 191 4,100  Level Northern Cal TRACON
Thu 10:49:09 PM 37.5333 -120.4500 322° Northwest 166 191 4,100  Level Northern Cal TRACON
Thu 10:50:09 PM 37.5667 -120.4833 322° Northwest 167 192 4,100  Level Northern Cal TRACON
Thu 10:51:09 PM 37.6000 -120.5167 322° Northwest 169 194 4,100  Level Northern Cal TRACON
Thu 10:52:10 PM 37.6500 -120.5667 322° Northwest 169 194 4,100  Level Northern Cal TRACON
Thu 10:53:10 PM 37.6833 -120.6000 322° Northwest 165 190 4,100  Level Northern Cal TRACON
Thu 10:54:10 PM 37.7167 -120.6333 322° Northwest 165 190 4,100  Level Northern Cal TRACON
Thu 10:56:10 PM 37.7833 -120.7000 310° West 168 193 4,100  Level Northern Cal TRACON
Thu 10:57:10 PM 37.8167 -120.7500 322° Northwest 167 192 4,100  Level Northern Cal TRACON
Thu 10:58:10 PM 37.8500 -120.7833 332° Northwest 169 194 4,100  Level Northern Cal TRACON
Thu 10:59:10 PM 37.9000 -120.8167 322° Northwest 169 194 4,100  Level Northern Cal TRACON
Thu 11:00:10 PM 37.9333 -120.8500 310° West 167 192 4,100  Level Northern Cal TRACON
Thu 11:01:10 PM 37.9667 -120.9000 322° Northwest 166 191 4,100  Level Northern Cal TRACON
Thu 11:02:11 PM 38.0000 -120.9333 310° West 169 194 4,100  Level Northern Cal TRACON
Thu 11:03:11 PM 38.0333 -120.9833 339° North 173 199 4,100  Level Northern Cal TRACON
Thu 11:04:05 PM 38.0667 -121.0000 345° North 163 188 4,100  Level Northern Cal TRACON
Thu 11:05:05 PM 38.1167 -121.0167 15° North 172 198 4,100  Level Northern Cal TRACON
Thu 11:06:05 PM 38.1667 -121.0000 332° Northwest 186 214 4,100  Level Northern Cal TRACON
Thu 11:07:11 PM 38.2167 -121.0333 322° Northwest 172 198 4,100  Level Northern Cal TRACON
Thu 11:08:05 PM 38.2500 -121.0667 332° Northwest 169 194 4,100  Level Northern Cal TRACON
Thu 11:09:05 PM 38.3000 -121.1000 322° Northwest 170 196 4,100  Level Northern Cal TRACON
Thu 11:10:05 PM 38.3333 -121.1333 322° Northwest 171 197 4,100  Level Northern Cal TRACON
Thu 11:11:06 PM 38.3667 -121.1667 322° Northwest 171 197 4,100 -99 Level Northern Cal TRACON
Thu 11:12:06 PM 38.4000 -121.2000 310° West 161 185 3,900 -381 Descending Northern Cal TRACON
Thu 11:13:12 PM 38.4333 -121.2500 310° West 169 194 3,300 -600 Descending Northern Cal TRACON
Thu 11:14:06 PM 38.4667 -121.3000 322° Northwest 165 190 2,700 -421 Descending Northern Cal TRACON
Thu 11:15:06 PM 38.5000 -121.3333 322° Northwest 153 176 2,500 -200 Descending Northern Cal TRACON

Login

Don't have an account? Register now (free) for customized features, flight alerts, and more!